Time;durP1;ratioP1;P1;durP2;ratioP2;P2;SDS_P1;SDS_P2;PMS_P1;PMS_P2;Temp;Humidity;BMP_temperature;BMP_pressure;BME280_temperature;BME280_humidity;BME280_pressure;Samples;Min_cycle;Max_cycle;Signal;HPM_P1;HPM_P2
2022/08/17 00:00:34;;;;;;;10.57;9.60;;;21.50;97.10;;;;;;5031348;28;20465;-58
2022/08/17 00:03:08;;;;;;;10.70;9.80;;;21.40;97.30;;;;;;5031834;28;20519;-61
2022/08/17 00:05:39;;;;;;;10.63;9.77;;;21.40;97.40;;;;;;5025908;28;20509;-58
2022/08/17 00:08:08;;;;;;;9.13;8.33;;;21.40;97.60;;;;;;5033028;28;20461;-58
2022/08/17 00:10:36;;;;;;;12.50;10.07;;;21.30;97.60;;;;;;5031959;28;20978;-58
2022/08/17 00:13:06;;;;;;;11.03;9.93;;;21.30;97.70;;;;;;5030114;28;20462;-57
2022/08/17 00:15:33;;;;;;;12.13;10.90;;;21.30;97.80;;;;;;5031718;28;20577;-58
2022/08/17 00:18:01;;;;;;;9.97;9.07;;;21.20;97.90;;;;;;5031346;28;20471;-58
2022/08/17 00:20:28;;;;;;;10.33;9.20;;;21.20;98.00;;;;;;5033053;28;20875;-58
2022/08/17 00:23:04;;;;;;;10.40;9.47;;;21.20;98.10;;;;;;5032135;28;20467;-57
2022/08/17 00:25:33;;;;;;;10.73;9.83;;;21.20;98.10;;;;;;5032464;28;20487;-57
2022/08/17 00:28:00;;;;;;;9.90;9.10;;;21.20;98.00;;;;;;5034764;28;20466;-59
2022/08/17 00:30:28;;;;;;;9.87;9.13;;;21.20;98.10;;;;;;5035136;28;20466;-57
2022/08/17 00:32:56;;;;;;;11.03;9.97;;;21.10;98.50;;;;;;5035989;28;20465;-57
2022/08/17 00:35:26;;;;;;;9.30;8.40;;;21.00;98.30;;;;;;5036302;28;20489;-58
2022/08/17 00:37:54;;;;;;;10.53;9.67;;;21.00;98.50;;;;;;5036504;28;20458;-57
2022/08/17 00:40:21;;;;;;;11.43;10.33;;;21.00;98.70;;;;;;5036985;28;20529;-57
2022/08/17 00:42:50;;;;;;;10.30;9.30;;;21.00;98.70;;;;;;5035009;28;20467;-60
2022/08/17 00:45:19;;;;;;;10.63;9.20;;;21.00;98.80;;;;;;5034928;28;20984;-58
2022/08/17 00:47:46;;;;;;;10.47;9.50;;;20.90;98.80;;;;;;5035501;28;20551;-58
2022/08/17 00:50:17;;;;;;;13.10;9.40;;;20.90;99.00;;;;;;5036423;28;21020;-57
2022/08/17 00:52:51;;;;;;;10.50;9.60;;;20.80;99.30;;;;;;5035663;28;20464;-57
2022/08/17 00:55:19;;;;;;;11.53;9.13;;;20.80;99.50;;;;;;5034574;28;20496;-58
2022/08/17 00:57:50;;;;;;;10.23;9.40;;;20.80;99.70;;;;;;5034312;28;20841;-59
2022/08/17 01:00:25;;;;;;;13.17;11.97;;;20.70;99.90;;;;;;5035939;28;20920;-59
2022/08/17 01:02:57;;;;;;;10.27;9.37;;;20.70;99.90;;;;;;5031014;28;20457;-56
2022/08/17 01:05:28;;;;;;;10.63;9.73;;;20.70;99.90;;;;;;5035141;28;20827;-58
2022/08/17 01:07:56;;;;;;;9.47;8.63;;;20.60;99.90;;;;;;5034180;28;20977;-59
2022/08/17 01:10:31;;;;;;;10.30;9.40;;;20.60;99.90;;;;;;5036274;28;20446;-57
2022/08/17 01:13:01;;;;;;;10.50;9.50;;;20.60;99.90;;;;;;5032672;28;20481;-57
2022/08/17 01:15:30;;;;;;;9.97;8.83;;;20.50;99.90;;;;;;5034597;28;20489;-58
2022/08/17 01:17:57;;;;;;;9.63;8.73;;;20.50;99.90;;;;;;5034913;28;21019;-58
2022/08/17 01:20:25;;;;;;;9.50;8.53;;;20.50;99.90;;;;;;5036456;28;20500;-57
2022/08/17 01:22:53;;;;;;;9.50;8.53;;;20.40;99.90;;;;;;5036552;28;20866;-57
2022/08/17 01:25:22;;;;;;;14.97;9.50;;;20.40;99.90;;;;;;5035550;28;20464;-57
2022/08/17 01:27:49;;;;;;;10.20;9.17;;;20.40;99.90;;;;;;5033790;28;20468;-59
2022/08/17 01:30:18;;;;;;;9.60;8.30;;;20.40;99.90;;;;;;5036101;28;20514;-57
2022/08/17 01:32:45;;;;;;;9.60;8.80;;;20.40;99.90;;;;;;5034153;28;20548;-57
2022/08/17 01:35:13;;;;;;;9.03;8.23;;;20.30;99.90;;;;;;5036014;28;20827;-57
2022/08/17 01:37:42;;;;;;;9.70;8.77;;;20.30;99.90;;;;;;5033177;28;20461;-56
2022/08/17 01:40:16;;;;;;;9.63;8.70;;;20.30;99.90;;;;;;5033971;28;20560;-56
2022/08/17 01:42:46;;;;;;;10.23;9.33;;;20.30;99.90;;;;;;5036240;28;20529;-56
2022/08/17 01:45:17;;;;;;;9.53;8.63;;;20.30;99.90;;;;;;5036571;28;20515;-56
2022/08/17 01:47:45;;;;;;;9.93;9.03;;;20.20;99.90;;;;;;5034417;28;20459;-58
2022/08/17 01:50:15;;;;;;;10.30;9.30;;;20.20;99.90;;;;;;5034233;28;20548;-57
2022/08/17 01:52:43;;;;;;;11.77;9.07;;;20.10;99.90;;;;;;5036387;28;20465;-57
2022/08/17 01:55:15;;;;;;;14.87;9.53;;;20.10;99.90;;;;;;5035546;28;20501;-57
2022/08/17 01:57:44;;;;;;;9.23;8.27;;;20.10;99.90;;;;;;5035045;28;20479;-56
2022/08/17 02:00:13;;;;;;;10.03;9.13;;;20.10;99.90;;;;;;5033908;28;20461;-57
2022/08/17 02:02:44;;;;;;;11.30;8.87;;;20.10;99.90;;;;;;5035308;28;20511;-62
2022/08/17 02:05:12;;;;;;;9.90;8.80;;;20.00;99.90;;;;;;5034790;28;20476;-58
2022/08/17 02:07:39;;;;;;;9.30;8.30;;;20.00;99.90;;;;;;5033911;28;20457;-56
2022/08/17 02:10:08;;;;;;;8.97;8.17;;;20.00;99.90;;;;;;5034462;28;20555;-57
2022/08/17 02:12:37;;;;;;;9.23;8.30;;;19.90;99.90;;;;;;5034971;28;20568;-57
2022/08/17 02:15:06;;;;;;;9.47;8.60;;;19.90;99.90;;;;;;5035255;28;20500;-58
2022/08/17 02:17:33;;;;;;;11.20;9.00;;;19.90;99.90;;;;;;5033439;28;20548;-57
2022/08/17 02:20:01;;;;;;;9.97;8.87;;;19.90;99.90;;;;;;5034029;28;21042;-57
2022/08/17 02:22:29;;;;;;;10.30;7.93;;;19.80;99.90;;;;;;5033714;28;20540;-58
2022/08/17 02:24:57;;;;;;;8.83;7.80;;;19.80;99.90;;;;;;5034658;28;20567;-57
2022/08/17 02:27:24;;;;;;;10.43;8.10;;;19.80;99.90;;;;;;5033508;28;20468;-58
2022/08/17 02:29:53;;;;;;;9.03;8.13;;;19.80;99.90;;;;;;5033542;28;20464;-57
2022/08/17 02:32:25;;;;;;;8.73;7.93;;;19.70;99.90;;;;;;5034019;28;20464;-57
2022/08/17 02:34:52;;;;;;;9.53;7.50;;;19.70;99.90;;;;;;5033730;28;20531;-58
2022/08/17 02:37:19;;;;;;;8.73;7.70;;;19.70;99.90;;;;;;5033842;28;20465;-57
2022/08/17 02:39:47;;;;;;;9.13;8.30;;;19.70;99.90;;;;;;5034098;28;20467;-57
2022/08/17 02:42:14;;;;;;;8.70;7.80;;;19.70;99.90;;;;;;5033509;28;20467;-57
2022/08/17 02:44:42;;;;;;;9.50;8.70;;;19.70;99.90;;;;;;5034405;28;20451;-59
2022/08/17 02:47:11;;;;;;;9.10;8.20;;;19.70;99.90;;;;;;5033178;28;20480;-59
2022/08/17 02:49:38;;;;;;;8.90;7.90;;;19.60;99.90;;;;;;5031760;28;20591;-58
2022/08/17 02:52:07;;;;;;;9.30;8.50;;;19.60;99.90;;;;;;5032764;28;21028;-57
2022/08/17 02:54:35;;;;;;;9.03;8.20;;;19.60;99.90;;;;;;5033685;28;20825;-59
2022/08/17 02:57:02;;;;;;;9.47;8.63;;;19.60;99.90;;;;;;5032225;28;20996;-59
2022/08/17 02:59:30;;;;;;;8.77;7.87;;;19.60;99.90;;;;;;5033357;28;20460;-58
2022/08/17 03:01:57;;;;;;;8.80;7.53;;;19.60;99.90;;;;;;5030807;28;20551;-59
2022/08/17 03:04:26;;;;;;;10.00;9.00;;;19.60;99.90;;;;;;5020557;28;20534;-59
2022/08/17 03:06:53;;;;;;;7.70;7.00;;;19.50;99.90;;;;;;5024463;28;20580;-57
2022/08/17 03:09:20;;;;;;;8.30;7.50;;;19.50;99.90;;;;;;5032178;28;20549;-57
2022/08/17 03:11:49;;;;;;;8.83;7.93;;;19.50;99.90;;;;;;5033779;28;20461;-57
2022/08/17 03:14:16;;;;;;;8.83;7.93;;;19.50;99.90;;;;;;5032017;28;20488;-58
2022/08/17 03:16:44;;;;;;;12.53;9.20;;;19.50;99.90;;;;;;5032559;28;20851;-58
2022/08/17 03:19:11;;;;;;;8.43;7.70;;;19.40;99.90;;;;;;5031654;28;20549;-57
2022/08/17 03:21:40;;;;;;;8.97;8.17;;;19.40;99.90;;;;;;5033427;28;20456;-58
2022/08/17 03:24:07;;;;;;;9.23;8.33;;;19.40;99.90;;;;;;5033575;28;20473;-57
2022/08/17 03:26:34;;;;;;;11.70;8.73;;;19.40;99.80;;;;;;5032853;28;20476;-59
2022/08/17 03:29:01;;;;;;;10.17;7.77;;;19.40;99.70;;;;;;5032186;28;20548;-59
2022/08/17 03:31:30;;;;;;;8.80;7.90;;;19.40;99.70;;;;;;5031957;28;20544;-57
2022/08/17 03:33:57;;;;;;;8.80;8.00;;;19.30;99.60;;;;;;5031807;28;20556;-58
2022/08/17 03:36:24;;;;;;;8.53;7.70;;;19.30;99.50;;;;;;5029370;28;20563;-57
2022/08/17 03:38:53;;;;;;;8.50;7.70;;;19.30;99.50;;;;;;5032863;28;20475;-56
2022/08/17 03:41:20;;;;;;;10.83;8.27;;;19.30;99.40;;;;;;5031768;28;20472;-58
2022/08/17 03:43:47;;;;;;;11.30;8.27;;;19.30;99.30;;;;;;5033452;28;20440;-57
2022/08/17 03:57:15;;;;;;;9.83;7.63;;;19.20;99.30;;;;;;5032086;28;20562;-57
2022/08/17 03:59:42;;;;;;;9.23;8.40;;;19.10;99.30;;;;;;5031059;28;20540;-59
2022/08/17 04:02:14;;;;;;;9.07;8.13;;;19.10;99.30;;;;;;5030767;28;20901;-58
2022/08/17 04:04:41;;;;;;;8.87;7.97;;;19.10;99.30;;;;;;5031023;28;20545;-58
2022/08/17 04:10:08;;;;;;;10.10;9.10;;;19.10;99.40;;;;;;5090896;27;21121;-58
2022/08/17 04:12:45;;;;;;;15.50;9.10;;;19.10;99.90;;;;;;5071569;28;20559;-58
2022/08/17 04:15:13;;;;;;;10.20;9.23;;;19.10;99.80;;;;;;5079606;28;20564;-58
2022/08/17 04:17:43;;;;;;;11.07;9.47;;;19.10;99.90;;;;;;5089100;28;20494;-59
2022/08/17 04:20:11;;;;;;;9.03;8.23;;;19.10;99.90;;;;;;5088574;28;20934;-58
2022/08/17 04:22:38;;;;;;;9.27;8.37;;;19.10;99.90;;;;;;5072754;28;20567;-58
2022/08/17 04:25:13;;;;;;;9.67;8.77;;;19.10;99.90;;;;;;5071004;28;20566;-58
2022/08/17 04:27:41;;;;;;;10.67;8.80;;;19.20;99.90;;;;;;5082964;28;20485;-57
2022/08/17 04:30:09;;;;;;;9.30;8.40;;;19.20;99.90;;;;;;5077445;28;20533;-58
2022/08/17 04:32:55;;;;;;;9.80;8.90;;;19.20;99.90;;;;;;5083201;28;20470;-59
2022/08/17 04:35:25;;;;;;;9.23;8.30;;;19.30;99.90;;;;;;5076172;28;20515;-59
2022/08/17 04:37:53;;;;;;;9.40;8.50;;;19.50;99.90;;;;;;5072959;28;20489;-61
2022/08/17 04:43:11;;;;;;;10.10;9.13;;;19.80;99.30;;;;;;5076790;28;20821;-57
2022/08/17 04:45:42;;;;;;;9.77;7.90;;;20.00;98.90;;;;;;5091189;28;20520;-59
2022/08/17 04:48:09;;;;;;;9.23;8.10;;;20.10;98.50;;;;;;5091632;28;20478;-56
2022/08/17 04:50:42;;;;;;;9.00;8.13;;;20.30;98.20;;;;;;5087749;28;20537;-59
2022/08/17 04:53:10;;;;;;;10.60;8.63;;;20.40;97.80;;;;;;5075567;28;20478;-58
2022/08/17 04:55:39;;;;;;;9.80;8.90;;;20.50;97.40;;;;;;5075337;28;20881;-58
2022/08/17 04:58:07;;;;;;;14.97;8.17;;;20.50;97.10;;;;;;5081536;28;20499;-57
2022/08/17 05:00:35;;;;;;;9.03;8.13;;;20.60;96.90;;;;;;5074356;28;20456;-58
2022/08/17 05:03:03;;;;;;;10.40;8.33;;;20.60;96.70;;;;;;5083577;28;20522;-60
2022/08/17 05:05:32;;;;;;;8.23;7.40;;;20.60;96.50;;;;;;5074258;28;20849;-58
2022/08/17 05:08:01;;;;;;;9.00;8.20;;;20.60;96.30;;;;;;5075718;28;20579;-58
2022/08/17 05:10:32;;;;;;;9.33;8.20;;;20.70;96.10;;;;;;5077309;28;20454;-58
2022/08/17 05:13:02;;;;;;;8.80;7.97;;;20.70;95.90;;;;;;5076021;28;20559;-66
2022/08/17 05:15:30;;;;;;;8.60;7.73;;;20.80;95.70;;;;;;5076853;28;20475;-58
2022/08/17 05:17:58;;;;;;;12.40;8.27;;;20.90;95.50;;;;;;5079654;28;20465;-58
2022/08/17 05:20:25;;;;;;;9.20;8.27;;;21.10;95.20;;;;;;5073785;28;20888;-58
2022/08/17 05:22:54;;;;;;;9.77;8.77;;;21.20;94.70;;;;;;5076122;28;20956;-58
2022/08/17 05:25:23;;;;;;;12.47;8.37;;;21.30;94.40;;;;;;5071136;28;21035;-59
2022/08/17 05:27:52;;;;;;;10.17;8.03;;;21.40;94.00;;;;;;5075999;28;20947;-59
2022/08/17 05:30:20;;;;;;;9.70;8.20;;;21.50;93.70;;;;;;5060473;28;21011;-58
2022/08/17 05:32:52;;;;;;;8.80;8.00;;;21.50;93.30;;;;;;5055826;28;20469;-57
2022/08/17 05:35:20;;;;;;;9.20;8.23;;;21.60;93.00;;;;;;5056358;28;20926;-58
2022/08/17 05:37:47;;;;;;;9.10;7.97;;;21.70;92.60;;;;;;5059396;28;20503;-58
2022/08/17 05:40:15;;;;;;;14.53;8.17;;;21.80;92.30;;;;;;5064004;28;20872;-58
2022/08/17 05:42:42;;;;;;;8.90;8.00;;;21.90;92.10;;;;;;5062425;28;20464;-59
2022/08/17 05:45:10;;;;;;;9.03;7.90;;;22.00;91.80;;;;;;5074061;28;20491;-57
2022/08/17 05:47:40;;;;;;;8.63;7.73;;;22.10;91.40;;;;;;5059905;28;20467;-57
2022/08/17 05:50:09;;;;;;;9.30;8.17;;;22.20;91.10;;;;;;5085186;28;20475;-58
2022/08/17 05:52:45;;;;;;;8.03;7.23;;;22.20;90.70;;;;;;5089101;28;20466;-58
2022/08/17 05:55:21;;;;;;;9.20;8.30;;;22.30;90.50;;;;;;5089230;28;20781;-57
2022/08/17 05:58:04;;;;;;;8.80;8.00;;;22.40;90.20;;;;;;5084248;28;20504;-56
2022/08/17 06:00:42;;;;;;;8.20;7.30;;;22.40;89.70;;;;;;5083139;28;20480;-64
2022/08/17 06:03:29;;;;;;;13.10;8.17;;;22.40;89.00;;;;;;5076804;28;20530;-59
2022/08/17 06:06:24;;;;;;;11.07;9.60;;;22.50;88.50;;;;;;5056853;28;20974;-59
2022/08/17 06:08:55;;;;;;;9.00;8.10;;;22.50;88.00;;;;;;5055185;28;20484;-58
2022/08/17 06:11:31;;;;;;;9.40;8.50;;;22.60;87.40;;;;;;5055987;28;20462;-58
2022/08/17 06:14:08;;;;;;;8.80;7.97;;;22.70;86.90;;;;;;5055987;28;20496;-59
2022/08/17 06:16:38;;;;;;;10.43;9.20;;;22.80;86.40;;;;;;5056321;28;20542;-58
2022/08/17 06:19:15;;;;;;;9.17;8.30;;;22.90;86.00;;;;;;5057689;28;20453;-59
2022/08/17 06:21:46;;;;;;;9.50;8.60;;;23.00;85.30;;;;;;5055106;28;20527;-59
2022/08/17 06:24:33;;;;;;;8.83;7.90;;;23.10;84.80;;;;;;5058431;28;20479;-57
2022/08/17 06:27:09;;;;;;;14.70;8.40;;;23.20;84.20;;;;;;5059390;28;20466;-54
2022/08/17 06:29:44;;;;;;;8.30;7.00;;;23.30;83.50;;;;;;5059653;28;20557;-58
2022/08/17 06:32:13;;;;;;;8.67;7.77;;;23.50;82.60;;;;;;5057757;28;20524;-57
2022/08/17 06:34:44;;;;;;;8.40;7.70;;;23.60;82.40;;;;;;5059827;28;20468;-58
2022/08/17 06:37:33;;;;;;;10.20;7.80;;;23.80;80.70;;;;;;5074540;28;20519;-58
2022/08/17 06:40:19;;;;;;;8.10;7.40;;;24.00;79.50;;;;;;5063891;28;20483;-59
2022/08/17 06:42:53;;;;;;;8.23;7.53;;;24.20;78.60;;;;;;5057321;28;20801;-58
2022/08/17 06:45:28;;;;;;;11.90;7.50;;;24.30;77.80;;;;;;5058684;28;20460;-58
2022/08/17 06:48:04;;;;;;;9.67;7.80;;;24.40;76.80;;;;;;5058446;28;20448;-57
2022/08/17 06:50:36;;;;;;;8.47;7.60;;;24.60;75.80;;;;;;5059536;28;20541;-59
2022/08/17 06:53:11;;;;;;;8.33;7.53;;;24.70;74.80;;;;;;5057194;28;20473;-59
2022/08/17 06:55:45;;;;;;;10.63;7.70;;;24.90;73.90;;;;;;5057690;28;20464;-59
2022/08/17 06:58:14;;;;;;;7.17;6.47;;;24.90;72.90;;;;;;5056340;28;20803;-59
2022/08/17 07:00:44;;;;;;;9.63;6.93;;;24.90;72.50;;;;;;5054826;28;20445;-58
2022/08/17 07:03:17;;;;;;;8.77;7.80;;;24.90;72.00;;;;;;5055027;28;21008;-58
2022/08/17 07:05:51;;;;;;;8.27;7.43;;;25.00;71.30;;;;;;5054985;28;20475;-59
2022/08/17 07:08:23;;;;;;;6.47;5.97;;;25.10;70.50;;;;;;5054311;28;21001;-59
2022/08/17 07:10:55;;;;;;;7.97;7.17;;;25.20;69.90;;;;;;5053972;28;20549;-58
2022/08/17 07:13:43;;;;;;;7.73;7.03;;;25.30;69.40;;;;;;5053874;28;20515;-58
2022/08/17 07:16:20;;;;;;;7.83;7.13;;;25.30;68.60;;;;;;5053775;28;20464;-58
2022/08/17 07:18:49;;;;;;;9.03;6.83;;;25.30;68.20;;;;;;5054345;28;20438;-59
2022/08/17 07:21:30;;;;;;;8.70;7.00;;;25.30;68.10;;;;;;5055068;28;20472;-58
2022/08/17 07:24:11;;;;;;;7.63;6.67;;;25.30;68.10;;;;;;5054369;28;20834;-58
2022/08/17 07:26:38;;;;;;;10.20;6.50;;;25.30;68.10;;;;;;5053532;28;20558;-58
2022/08/17 07:29:06;;;;;;;8.30;5.80;;;25.30;68.00;;;;;;5053400;28;20490;-59
2022/08/17 07:31:33;;;;;;;8.97;6.40;;;25.40;67.90;;;;;;5053610;28;20997;-59
2022/08/17 07:34:05;;;;;;;8.83;6.60;;;25.50;67.70;;;;;;5053732;28;20449;-58
2022/08/17 07:36:34;;;;;;;10.00;7.33;;;25.50;67.70;;;;;;5053728;28;21035;-58
2022/08/17 07:39:03;;;;;;;9.17;6.60;;;25.50;67.40;;;;;;5054059;28;20476;-59
2022/08/17 07:41:38;;;;;;;9.37;6.47;;;25.60;67.20;;;;;;5053396;28;20489;-56
2022/08/17 07:44:12;;;;;;;14.07;7.13;;;25.70;67.60;;;;;;5053458;28;20438;-57
2022/08/17 07:49:37;;;;;;;6.90;6.20;;;26.00;65.90;;;;;;5052750;28;20576;-58
2022/08/17 07:52:10;;;;;;;7.47;6.77;;;26.20;65.00;;;;;;5052813;28;21000;-60
2022/08/17 07:54:39;;;;;;;8.93;7.23;;;26.40;64.20;;;;;;5052816;28;20861;-58
2022/08/17 07:57:30;;;;;;;7.03;6.00;;;26.70;63.60;;;;;;5053348;28;20502;-58
2022/08/17 08:00:20;;;;;;;7.50;6.63;;;26.90;62.60;;;;;;5054409;28;20428;-59
2022/08/17 08:03:01;;;;;;;6.33;5.73;;;27.10;61.70;;;;;;5053245;28;20430;-58
2022/08/17 08:05:30;;;;;;;6.70;6.00;;;27.30;60.80;;;;;;5053322;28;20505;-58
2022/08/17 08:08:03;;;;;;;6.73;6.03;;;27.40;60.10;;;;;;5053263;28;20481;-57
2022/08/17 08:10:35;;;;;;;6.80;5.70;;;27.50;59.60;;;;;;5053311;28;20524;-59
2022/08/17 08:13:08;;;;;;;7.03;6.37;;;27.60;59.10;;;;;;5053509;28;20436;-58
2022/08/17 08:15:39;;;;;;;6.40;5.77;;;27.90;58.30;;;;;;5053199;28;20518;-60
2022/08/17 08:18:21;;;;;;;7.00;5.90;;;28.20;57.50;;;;;;5053388;28;20451;-59
2022/08/17 08:20:52;;;;;;;7.63;5.37;;;28.40;56.60;;;;;;5053316;28;20908;-57
2022/08/17 08:23:34;;;;;;;6.40;5.90;;;28.60;55.80;;;;;;5053518;28;20449;-58
2022/08/17 08:26:28;;;;;;;7.00;5.30;;;28.80;54.40;;;;;;5053100;28;20470;-59
2022/08/17 08:29:07;;;;;;;6.63;5.80;;;29.00;53.90;;;;;;5053437;28;20488;-59
2022/08/17 08:31:51;;;;;;;5.57;5.07;;;29.20;53.30;;;;;;5053536;28;20426;-58
2022/08/17 08:34:29;;;;;;;5.30;4.90;;;29.50;52.70;;;;;;5052738;28;20431;-59
2022/08/17 08:37:05;;;;;;;7.50;5.00;;;29.70;51.60;;;;;;5053709;28;20467;-58
2022/08/17 08:39:41;;;;;;;5.07;4.67;;;29.90;50.90;;;;;;5053663;28;20427;-59
2022/08/17 08:42:16;;;;;;;6.43;4.30;;;29.90;50.20;;;;;;5054405;28;20849;-57
2022/08/17 08:44:54;;;;;;;5.20;4.37;;;30.00;49.80;;;;;;5054207;28;20437;-62
2022/08/17 08:47:30;;;;;;;4.90;4.40;;;30.00;49.20;;;;;;5073351;28;20513;-59
2022/08/17 08:50:11;;;;;;;5.13;4.63;;;30.00;48.90;;;;;;5074944;28;20474;-58
2022/08/17 08:53:03;;;;;;;5.30;4.80;;;30.00;48.70;;;;;;5074446;28;20507;-60
2022/08/17 08:55:44;;;;;;;5.17;4.77;;;30.10;48.40;;;;;;5075307;28;20492;-60
2022/08/17 08:58:16;;;;;;;6.03;4.67;;;30.10;48.20;;;;;;5067784;28;20490;-58
2022/08/17 09:00:48;;;;;;;4.93;4.40;;;30.10;48.00;;;;;;5072775;28;20432;-56
2022/08/17 09:03:45;;;;;;;5.87;5.37;;;30.20;47.80;;;;;;5073534;28;20804;-57
2022/08/17 09:06:25;;;;;;;6.57;5.00;;;30.30;47.60;;;;;;5056051;28;20515;-58
2022/08/17 09:09:03;;;;;;;7.60;5.53;;;30.40;47.50;;;;;;5064077;28;20476;-59
2022/08/17 09:11:39;;;;;;;6.00;4.60;;;30.50;47.30;;;;;;5073981;28;20476;-59
2022/08/17 09:14:15;;;;;;;5.03;4.53;;;30.50;46.80;;;;;;5056865;28;20473;-59
2022/08/17 09:16:56;;;;;;;6.23;5.10;;;30.60;46.60;;;;;;5068918;28;20484;-59
2022/08/17 09:19:30;;;;;;;8.00;5.37;;;30.60;46.30;;;;;;5056460;28;20460;-60
2022/08/17 09:22:02;;;;;;;7.27;5.30;;;30.80;45.90;;;;;;5056950;28;20521;-58
2022/08/17 09:24:37;;;;;;;8.77;4.90;;;31.00;45.70;;;;;;5056527;28;20441;-59
2022/08/17 09:27:12;;;;;;;7.60;5.07;;;31.20;45.50;;;;;;5056211;28;20453;-58
2022/08/17 09:29:45;;;;;;;5.30;4.90;;;31.40;45.30;;;;;;5056346;28;20467;-59
2022/08/17 09:32:19;;;;;;;5.70;4.57;;;31.60;44.90;;;;;;5056688;28;20475;-59
2022/08/17 09:34:53;;;;;;;4.50;4.10;;;31.70;44.70;;;;;;5055704;28;20823;-59
2022/08/17 09:37:25;;;;;;;6.90;5.70;;;31.60;44.50;;;;;;5056159;28;20487;-58
2022/08/17 09:40:06;;;;;;;7.87;4.60;;;31.60;44.60;;;;;;5056081;28;20455;-60
2022/08/17 09:42:42;;;;;;;7.03;5.30;;;31.50;44.70;;;;;;5055788;28;20476;-58
2022/08/17 09:45:23;;;;;;;7.03;5.50;;;31.40;44.60;;;;;;5055768;28;20488;-59
2022/08/17 09:47:56;;;;;;;6.20;4.97;;;31.20;44.90;;;;;;5055727;28;20539;-59
2022/08/17 09:50:28;;;;;;;6.37;4.70;;;31.20;45.00;;;;;;5056233;28;20557;-60
2022/08/17 09:52:58;;;;;;;6.87;5.80;;;31.20;44.90;;;;;;5055609;28;20435;-59
2022/08/17 09:55:36;;;;;;;6.27;5.63;;;31.20;44.90;;;;;;5055639;28;20467;-59
2022/08/17 09:58:15;;;;;;;6.43;5.87;;;31.10;44.90;;;;;;5055851;28;20436;-61
2022/08/17 10:00:49;;;;;;;6.30;5.60;;;31.10;44.90;;;;;;5056763;28;20492;-58
2022/08/17 10:03:31;;;;;;;5.67;5.07;;;31.20;45.30;;;;;;5055763;28;20458;-60
2022/08/17 10:06:07;;;;;;;9.80;6.30;;;31.30;44.50;;;;;;5055562;28;20462;-60
2022/08/17 10:08:40;;;;;;;6.30;5.70;;;31.40;44.10;;;;;;5055437;28;20469;-57
2022/08/17 10:11:18;;;;;;;5.40;5.00;;;31.50;43.90;;;;;;5055241;28;20465;-59
2022/08/17 10:13:55;;;;;;;6.40;5.60;;;31.60;43.50;;;;;;5055179;28;20519;-58
2022/08/17 10:16:35;;;;;;;6.00;4.90;;;31.80;43.20;;;;;;5055551;28;20469;-60
2022/08/17 10:19:14;;;;;;;7.03;5.50;;;31.90;42.70;;;;;;5055223;28;20461;-59
2022/08/17 10:27:20;;;;;;;6.20;5.03;;;31.80;42.70;;;;;;5054990;28;20411;-58
2022/08/17 10:29:53;;;;;;;5.67;5.17;;;31.80;42.80;;;;;;5054752;28;20533;-60
2022/08/17 10:32:31;;;;;;;6.13;5.53;;;31.80;42.60;;;;;;5055805;28;20542;-59
2022/08/17 10:35:34;;;;;;;6.27;5.13;;;31.80;42.50;;;;;;5055515;28;20501;-59
2022/08/17 10:38:22;;;;;;;9.80;5.73;;;31.80;42.40;;;;;;5054837;28;20430;-59
2022/08/17 10:40:56;;;;;;;5.37;4.87;;;31.70;42.40;;;;;;5054827;28;20427;-58
2022/08/17 10:43:37;;;;;;;5.70;4.97;;;31.80;42.50;;;;;;5055634;28;20864;-59
2022/08/17 10:46:13;;;;;;;6.13;4.90;;;31.80;42.30;;;;;;5054580;28;20462;-59
2022/08/17 10:48:41;;;;;;;5.67;4.03;;;31.90;42.00;;;;;;5054936;28;20466;-59
2022/08/17 10:51:11;;;;;;;5.17;4.70;;;32.00;41.50;;;;;;5054857;28;20482;-59
2022/08/17 10:54:00;;;;;;;4.83;4.23;;;32.00;41.10;;;;;;5055198;28;20450;-57
2022/08/17 10:56:50;;;;;;;4.60;4.20;;;31.90;40.80;;;;;;5054483;28;20470;-58
2022/08/17 10:59:50;;;;;;;6.43;4.20;;;31.80;40.60;;;;;;5056891;28;20432;-59
2022/08/17 11:02:44;;;;;;;5.50;4.17;;;31.80;40.60;;;;;;5057150;28;20447;-59
2022/08/17 11:05:27;;;;;;;4.87;4.37;;;31.90;40.30;;;;;;5057384;28;20831;-59
2022/08/17 11:08:28;;;;;;;5.80;4.60;;;31.90;40.20;;;;;;5056698;28;20435;-60
2022/08/17 11:11:15;;;;;;;4.30;3.90;;;32.10;40.00;;;;;;5054011;28;20521;-58
2022/08/17 11:13:49;;;;;;;5.97;4.37;;;32.30;39.80;;;;;;5060005;28;20451;-61
2022/08/17 11:16:33;;;;;;;5.20;4.70;;;32.40;39.30;;;;;;5056764;28;20462;-59
2022/08/17 11:19:37;;;;;;;4.93;4.43;;;32.50;39.00;;;;;;5059036;28;20436;-59
2022/08/17 11:22:33;;;;;;;4.97;4.30;;;32.50;38.70;;;;;;5058060;28;20511;-59
2022/08/17 11:25:14;;;;;;;6.30;5.20;;;32.60;38.30;;;;;;5055476;28;20478;-59
2022/08/17 11:27:44;;;;;;;5.13;4.10;;;32.60;38.10;;;;;;5056628;28;20435;-58
2022/08/17 11:30:15;;;;;;;4.83;4.43;;;32.60;38.00;;;;;;5057214;28;20590;-58
2022/08/17 11:32:46;;;;;;;7.57;4.30;;;32.60;37.90;;;;;;5054399;28;20434;-59
2022/08/17 11:35:38;;;;;;;4.30;3.90;;;32.50;38.10;;;;;;5053581;28;20504;-58
2022/08/17 11:38:17;;;;;;;9.13;4.00;;;32.30;38.30;;;;;;5053579;28;20511;-59
2022/08/17 11:41:12;;;;;;;5.00;4.10;;;32.30;38.60;;;;;;5053105;28;20439;-59
2022/08/17 11:43:59;;;;;;;7.10;4.80;;;32.30;38.70;;;;;;5052987;28;20432;-59
2022/08/17 11:52:39;;;;;;;5.60;4.57;;;32.60;38.40;;;;;;5053299;28;20538;-59
2022/08/17 11:55:08;;;;;;;7.50;5.10;;;32.80;38.20;;;;;;5053112;28;20809;-59
2022/08/17 11:58:00;;;;;;;7.97;4.30;;;32.80;38.00;;;;;;5053080;28;20519;-61
2022/08/17 12:00:55;;;;;;;4.67;4.27;;;32.80;37.70;;;;;;5054401;28;20448;-59
2022/08/17 12:03:44;;;;;;;4.20;3.80;;;32.80;37.80;;;;;;5063497;28;20439;-60
2022/08/17 12:06:34;;;;;;;4.33;4.03;;;32.70;37.90;;;;;;5063780;28;20596;-60
2022/08/17 12:09:17;;;;;;;5.17;4.17;;;32.70;38.00;;;;;;5071567;28;20508;-60
2022/08/17 12:11:49;;;;;;;4.30;3.90;;;32.70;37.90;;;;;;5073115;28;20470;-59
2022/08/17 12:14:25;;;;;;;4.80;4.40;;;32.60;37.80;;;;;;5061887;28;20455;-60
2022/08/17 12:17:01;;;;;;;4.80;4.30;;;32.60;37.90;;;;;;5061859;28;20475;-60
2022/08/17 12:19:29;;;;;;;3.93;3.53;;;32.70;37.80;;;;;;5073462;28;20427;-60
2022/08/17 12:22:00;;;;;;;4.70;3.73;;;32.90;37.50;;;;;;5073286;28;20442;-60
2022/08/17 12:24:49;;;;;;;4.87;4.37;;;33.00;37.00;;;;;;5066261;28;20543;-59
2022/08/17 12:27:24;;;;;;;4.50;4.10;;;33.50;36.30;;;;;;5070998;28;20451;-61
2022/08/17 12:29:52;;;;;;;5.97;3.50;;;33.90;35.60;;;;;;5053379;28;20827;-59
2022/08/17 12:32:22;;;;;;;4.30;3.63;;;34.10;35.20;;;;;;5073220;28;21023;-59
2022/08/17 12:34:51;;;;;;;5.93;3.30;;;34.00;34.90;;;;;;5075067;28;20934;-60
2022/08/17 12:37:23;;;;;;;4.37;3.97;;;34.00;35.00;;;;;;5070757;28;20562;-61
2022/08/17 12:39:56;;;;;;;5.50;4.00;;;33.60;35.30;;;;;;5060328;28;20448;-61
2022/08/17 12:42:30;;;;;;;6.43;4.23;;;33.30;35.70;;;;;;5066022;28;20545;-59
2022/08/17 12:44:58;;;;;;;6.00;3.70;;;33.00;36.20;;;;;;5076705;28;20548;-60
2022/08/17 12:47:26;;;;;;;7.33;4.27;;;32.90;36.30;;;;;;5076511;28;20957;-60
2022/08/17 12:49:56;;;;;;;4.93;4.20;;;32.90;36.20;;;;;;5076475;28;20873;-60
2022/08/17 12:52:25;;;;;;;4.47;3.23;;;33.00;36.10;;;;;;5076929;28;20505;-60
2022/08/17 12:54:58;;;;;;;4.20;3.80;;;33.30;35.80;;;;;;5076556;28;20950;-59
2022/08/17 12:57:31;;;;;;;3.90;3.60;;;33.50;35.40;;;;;;5074872;28;20463;-58
2022/08/17 13:00:08;;;;;;;5.30;4.33;;;33.80;34.90;;;;;;5074799;28;20459;-60
2022/08/17 13:02:45;;;;;;;4.33;3.60;;;34.10;34.80;;;;;;5076377;28;20423;-59
2022/08/17 13:05:22;;;;;;;5.30;4.13;;;34.10;34.60;;;;;;5071320;28;20871;-60
2022/08/17 13:07:49;;;;;;;6.60;4.20;;;33.90;34.80;;;;;;5075942;28;20530;-60
2022/08/17 13:10:22;;;;;;;4.20;3.43;;;33.80;35.00;;;;;;5076251;28;20803;-60
2022/08/17 13:12:50;;;;;;;10.07;4.63;;;33.60;35.10;;;;;;5076227;28;20427;-60
2022/08/17 13:15:25;;;;;;;4.60;4.13;;;33.70;35.20;;;;;;5077388;28;20462;-62
2022/08/17 13:17:58;;;;;;;3.77;3.47;;;33.70;35.20;;;;;;5076231;28;20446;-61
2022/08/17 13:20:26;;;;;;;5.70;3.63;;;33.80;35.10;;;;;;5077168;28;20473;-60
2022/08/17 13:22:56;;;;;;;5.40;3.80;;;33.70;35.00;;;;;;5072097;28;20502;-61
2022/08/17 13:25:26;;;;;;;4.73;4.20;;;33.70;35.00;;;;;;5058241;28;20484;-60
2022/08/17 13:27:55;;;;;;;6.03;3.83;;;33.80;35.00;;;;;;5076161;28;21003;-62
2022/08/17 13:30:26;;;;;;;4.90;4.50;;;33.80;34.80;;;;;;5075767;28;20547;-60
2022/08/17 13:32:55;;;;;;;6.73;3.30;;;33.90;34.70;;;;;;5076533;28;20789;-60
2022/08/17 13:35:44;;;;;;;4.30;3.90;;;33.80;34.70;;;;;;5071709;28;20538;-61
2022/08/17 13:38:15;;;;;;;4.97;4.10;;;33.70;34.80;;;;;;5077863;28;20431;-61
2022/08/17 13:40:49;;;;;;;6.47;4.17;;;33.60;34.90;;;;;;5079813;28;20439;-61
2022/08/17 13:43:38;;;;;;;4.50;4.10;;;33.60;35.00;;;;;;5081914;28;20435;-60
2022/08/17 13:46:12;;;;;;;4.13;3.73;;;33.50;34.90;;;;;;5076185;28;20466;-61
2022/08/17 13:48:40;;;;;;;4.27;3.90;;;33.50;35.00;;;;;;5071715;28;20482;-60